Rainy River, Canada
Current Conditions -  °F | °C
As of 4:53 AM on Tuesday 21 Oct 2014 (Local Time) from KBDE Reporting Station
Clear Clear  
Wind Chill: 29°   Ceiling: Unl
Heat Index: 34°   Visibility: 10mi
Dew Point: 31°   Wind: 6mph
Humidity: 89%   Direction: 130°SE
Pressure: 30.14"   Gusts: NA
Location:  48.72°N, 94.56°W
Report Text: KBDE 210953Z AUTO 13005KT 10SM CLR 01/M01 A3014 RMK AO2 SLP216 T00111006 TSNO
Loading
Personal Weather Stations






























Interactive Weather Map
Tropical Storm Tracking
New forecast layout! Learn more

10-Day Weather Forecast

Advertisements
Track Severe Weather on mobile